Time,TemperatureF,DewpointF,PressureIn,WindDirection,WindDirectionDegrees,WindSpeedMPH,WindSpeedGustMPH,Humidity,HourlyPrecipIn,Conditions,Clouds,dailyrainin,SoftwareType,DateUTC
2013-01-18 09:12:00,37.0,26.8,29.71,SE,135,9.2,14.5,66,0.00,,,0.00,pywws,2013-01-18 09:12:00,
2013-01-18 09:17:00,36.9,26.6,29.70,ENE,68,7.6,13.6,66,0.00,,,0.00,pywws,2013-01-18 09:17:00,
2013-01-18 09:22:00,36.9,26.6,29.70,SE,135,6.0,12.1,66,0.00,,,0.00,pywws,2013-01-18 09:22:00,
2013-01-18 09:27:00,36.9,26.6,29.70,ENE,68,12.1,19.7,66,0.00,,,0.00,pywws,2013-01-18 09:27:00,
2013-01-18 09:32:00,37.0,26.8,29.70,NE,45,7.6,13.0,66,0.00,,,0.00,pywws,2013-01-18 09:32:00,
2013-01-18 09:37:00,37.4,27.5,29.70,SE,135,8.3,12.1,67,0.00,,,0.00,pywws,2013-01-18 09:37:00,
2013-01-18 09:42:00,37.8,27.8,29.70,ENE,68,6.9,9.8,67,0.00,,,0.00,pywws,2013-01-18 09:42:00,
2013-01-18 09:47:00,37.9,27.6,29.70,ESE,112,9.2,14.5,66,0.00,,,0.00,pywws,2013-01-18 09:47:00,
2013-01-18 09:52:00,37.8,27.4,29.70,ENE,68,9.2,15.2,66,0.00,,,0.00,pywws,2013-01-18 09:52:00,
2013-01-18 09:56:00,37.8,27.4,29.70,ENE,68,9.2,15.2,66,0.00,,,0.00,pywws,2013-01-18 09:56:00,
2013-01-18 09:57:00,37.4,27.1,29.70,ENE,68,10.7,17.5,66,0.00,,,0.00,pywws,2013-01-18 09:57:00,
2013-01-18 10:02:00,37.2,26.9,29.70,ENE,68,7.6,12.1,66,0.00,,,0.00,pywws,2013-01-18 10:02:00,
2013-01-18 10:06:00,37.2,26.9,29.70,ENE,68,7.6,12.1,66,0.00,,,0.00,pywws,2013-01-18 10:06:00,
2013-01-18 10:07:00,37.0,26.8,29.70,ENE,68,10.7,15.2,66,0.00,,,0.00,pywws,2013-01-18 10:07:00,
2013-01-18 10:12:00,37.0,26.8,29.70,ENE,68,6.0,9.2,66,0.00,,,0.00,pywws,2013-01-18 10:12:00,
2013-01-18 10:16:00,37.0,26.8,29.70,ENE,68,6.0,9.2,66,0.00,,,0.00,pywws,2013-01-18 10:16:00,
2013-01-18 10:17:00,37.0,27.1,29.70,ENE,68,10.7,19.0,67,0.00,,,0.00,pywws,2013-01-18 10:17:00,
2013-01-18 10:22:00,37.0,27.1,29.70,ENE,68,9.2,13.0,67,0.00,,,0.00,pywws,2013-01-18 10:22:00,
2013-01-18 10:27:00,37.0,27.1,29.70,ENE,68,9.2,13.0,67,0.00,,,0.00,pywws,2013-01-18 10:27:00,
2013-01-18 10:37:00,38.3,29.0,29.69,ENE,68,7.6,10.7,69,0.00,,,0.00,pywws,2013-01-18 10:37:00,
2013-01-18 10:41:00,38.3,29.0,29.69,ENE,68,7.6,10.7,69,0.00,,,0.00,pywws,2013-01-18 10:41:00,
2013-01-18 10:47:00,38.3,29.0,29.69,ENE,68,7.6,10.7,69,0.00,,,0.00,pywws,2013-01-18 10:47:00,
2013-01-18 10:52:00,39.4,29.7,29.69,SE,135,7.6,13.6,68,0.00,,,0.00,pywws,2013-01-18 10:52:00,
2013-01-18 10:56:00,39.4,29.7,29.69,SE,135,7.6,13.6,68,0.00,,,0.00,pywws,2013-01-18 10:56:00,
2013-01-18 11:01:00,40.1,29.3,29.68,SE,135,9.2,11.4,65,0.00,,,0.00,pywws,2013-01-18 11:01:00,
2013-01-18 11:07:00,40.1,29.3,29.68,SE,135,9.2,11.4,65,0.00,,,0.00,pywws,2013-01-18 11:07:00,
2013-01-18 11:12:00,40.1,28.9,29.69,SE,135,8.3,11.4,64,0.00,,,0.00,pywws,2013-01-18 11:12:00,
2013-01-18 11:16:00,40.1,28.9,29.69,SE,135,8.3,11.4,64,0.00,,,0.00,pywws,2013-01-18 11:16:00,
2013-01-18 11:17:00,40.1,28.9,29.69,SE,135,8.3,11.4,64,0.00,,,0.00,pywws,2013-01-18 11:17:00,
2013-01-18 11:22:00,40.3,28.7,29.69,ENE,68,10.7,18.3,63,0.00,,,0.00,pywws,2013-01-18 11:22:00,
2013-01-18 11:26:00,40.3,28.7,29.69,ENE,68,10.7,18.3,63,0.00,,,0.00,pywws,2013-01-18 11:26:00,
2013-01-18 11:27:00,40.3,28.7,29.68,ENE,68,10.7,18.3,63,0.00,,,0.00,pywws,2013-01-18 11:27:00,
2013-01-18 11:47:00,40.3,28.3,29.67,ENE,68,7.6,10.7,62,0.00,,,0.00,pywws,2013-01-18 11:47:00,
2013-01-18 11:52:00,40.5,28.9,29.67,SE,135,10.7,18.3,63,0.00,,,0.00,pywws,2013-01-18 11:52:00,
2013-01-18 11:56:00,40.5,28.9,29.67,SE,135,10.7,18.3,63,0.00,,,0.00,pywws,2013-01-18 11:56:00,
2013-01-18 11:57:00,40.6,28.7,29.67,ENE,68,10.7,16.8,62,0.00,,,0.00,pywws,2013-01-18 11:57:00,
2013-01-18 12:02:00,40.6,28.7,29.67,ENE,68,8.3,13.0,62,0.00,,,0.00,pywws,2013-01-18 12:02:00,
2013-01-18 12:06:00,40.6,28.7,29.67,ENE,68,8.3,13.0,62,0.00,,,0.00,pywws,2013-01-18 12:06:00,
2013-01-18 12:07:00,40.6,28.7,29.67,SE,135,11.4,16.8,62,0.00,,,0.00,pywws,2013-01-18 12:07:00,
2013-01-18 12:12:00,40.5,28.5,29.67,SE,135,7.6,11.4,62,0.00,,,0.00,pywws,2013-01-18 12:12:00,
2013-01-18 12:16:00,40.5,28.5,29.67,SE,135,7.6,11.4,62,0.00,,,0.00,pywws,2013-01-18 12:16:00,
2013-01-18 12:17:00,40.5,28.5,29.66,SE,135,7.6,11.4,62,0.00,,,0.00,pywws,2013-01-18 12:17:00,
2013-01-18 12:22:00,40.5,28.5,29.67,NE,45,12.1,19.0,62,0.00,,,0.00,pywws,2013-01-18 12:22:00,
2013-01-18 12:27:00,40.6,28.7,29.66,ENE,68,10.7,18.3,62,0.00,,,0.00,pywws,2013-01-18 12:27:00,
2013-01-18 12:32:00,40.8,28.8,29.66,SE,135,9.8,13.6,62,0.00,,,0.00,pywws,2013-01-18 12:32:00,
2013-01-18 12:36:00,40.8,28.8,29.66,SE,135,9.8,13.6,62,0.00,,,0.00,pywws,2013-01-18 12:36:00,
2013-01-18 12:37:00,41.2,29.2,29.66,ENE,68,9.2,15.2,62,0.00,,,0.00,pywws,2013-01-18 12:37:00,
2013-01-18 12:42:00,41.5,29.5,29.66,ENE,68,7.6,13.0,62,0.00,,,0.00,pywws,2013-01-18 12:42:00,
2013-01-18 12:46:00,41.5,29.5,29.66,ENE,68,7.6,13.0,62,0.00,,,0.00,pywws,2013-01-18 12:46:00,
2013-01-18 12:47:00,41.7,29.7,29.66,ENE,68,9.8,19.7,62,0.00,,,0.00,pywws,2013-01-18 12:47:00,
2013-01-18 12:52:00,41.7,29.7,29.66,ENE,68,10.7,18.3,62,0.00,,,0.00,pywws,2013-01-18 12:52:00,
2013-01-18 12:56:00,41.7,29.7,29.66,ENE,68,10.7,18.3,62,0.00,,,0.00,pywws,2013-01-18 12:56:00,
2013-01-18 12:57:00,41.5,29.5,29.66,ENE,68,9.8,13.0,62,0.00,,,0.00,pywws,2013-01-18 12:57:00,
2013-01-18 13:02:00,41.4,29.3,29.66,NE,45,7.6,10.7,62,0.00,,,0.00,pywws,2013-01-18 13:02:00,
2013-01-18 13:07:00,41.4,29.3,29.66,NE,45,7.6,10.7,62,0.00,,,0.00,pywws,2013-01-18 13:07:00,
2013-01-18 13:08:00,40.8,28.8,29.66,SE,135,9.2,13.6,62,0.00,,,0.00,pywws,2013-01-18 13:08:00,
2013-01-18 13:13:00,40.6,28.7,29.66,SE,135,6.9,9.8,62,0.00,,,0.00,pywws,2013-01-18 13:13:00,
2013-01-18 13:16:00,40.6,28.7,29.66,SE,135,6.9,9.8,62,0.00,,,0.00,pywws,2013-01-18 13:16:00,
2013-01-18 13:18:00,40.6,28.7,29.65,SE,135,6.9,9.8,62,0.00,,,0.00,pywws,2013-01-18 13:18:00,
2013-01-18 13:23:00,40.3,28.7,29.65,ENE,68,6.9,10.7,63,0.00,,,0.00,pywws,2013-01-18 13:23:00,
2013-01-18 13:26:00,40.3,28.7,29.65,ENE,68,6.9,10.7,63,0.00,,,0.00,pywws,2013-01-18 13:26:00,
2013-01-18 13:28:00,40.3,28.7,29.65,NE,45,6.9,13.0,63,0.00,,,0.00,pywws,2013-01-18 13:28:00,
2013-01-18 13:33:00,40.1,28.5,29.65,ENE,68,7.6,13.6,63,0.00,,,0.00,pywws,2013-01-18 13:33:00,
2013-01-18 13:36:00,40.1,28.5,29.65,ENE,68,7.6,13.6,63,0.00,,,0.00,pywws,2013-01-18 13:36:00,
2013-01-18 13:38:00,39.7,28.2,29.65,ENE,68,5.4,8.3,63,0.00,,,0.00,pywws,2013-01-18 13:38:00,
2013-01-18 13:43:00,39.6,28.0,29.65,SE,135,8.3,13.6,63,0.00,,,0.00,pywws,2013-01-18 13:43:00,
2013-01-18 13:46:00,39.6,28.0,29.65,SE,135,8.3,13.6,63,0.00,,,0.00,pywws,2013-01-18 13:46:00,
2013-01-18 13:48:00,39.6,28.0,29.64,SE,135,8.3,13.6,63,0.00,,,0.00,pywws,2013-01-18 13:48:00,
2013-01-18 13:53:00,39.2,27.7,29.65,ENE,68,9.8,15.9,63,0.00,,,0.00,pywws,2013-01-18 13:53:00,
2013-01-18 13:56:00,39.2,27.7,29.65,ENE,68,9.8,15.9,63,0.00,,,0.00,pywws,2013-01-18 13:56:00,
2013-01-18 13:58:00,39.2,27.7,29.64,ENE,68,9.8,15.9,63,0.00,,,0.00,pywws,2013-01-18 13:58:00,
2013-01-18 14:18:00,39.7,27.8,29.64,ENE,68,7.6,13.0,62,0.00,,,0.00,pywws,2013-01-18 14:18:00,
2013-01-18 14:23:00,39.2,27.3,29.64,ENE,68,4.5,8.3,62,0.00,,,0.00,pywws,2013-01-18 14:23:00,
2013-01-18 14:26:00,39.2,27.3,29.64,ENE,68,4.5,8.3,62,0.00,,,0.00,pywws,2013-01-18 14:26:00,
2013-01-18 14:28:00,39.0,27.5,29.63,ESE,112,5.4,9.8,63,0.00,,,0.00,pywws,2013-01-18 14:28:00,
2013-01-18 14:33:00,39.0,27.5,29.62,ENE,68,7.6,13.6,63,0.00,,,0.00,pywws,2013-01-18 14:33:00,
2013-01-18 14:36:00,39.0,27.5,29.62,ENE,68,7.6,13.6,63,0.00,,,0.00,pywws,2013-01-18 14:36:00,
2013-01-18 14:38:00,38.8,27.7,29.62,ENE,68,6.9,11.4,64,0.00,,,0.00,pywws,2013-01-18 14:38:00,
2013-01-18 14:43:00,38.8,27.7,29.62,ENE,68,9.2,15.2,64,0.00,,,0.00,pywws,2013-01-18 14:43:00,
2013-01-18 14:47:00,38.8,27.7,29.62,ENE,68,9.2,15.2,64,0.00,,,0.00,pywws,2013-01-18 14:47:00,
2013-01-18 14:48:00,38.3,27.2,29.62,ENE,68,5.4,9.2,64,0.00,,,0.00,pywws,2013-01-18 14:48:00,
2013-01-18 14:53:00,38.3,27.2,29.62,ENE,68,5.4,9.2,64,0.00,,,0.00,pywws,2013-01-18 14:53:00,
2013-01-18 14:56:00,38.3,27.2,29.62,ENE,68,5.4,9.2,64,0.00,,,0.00,pywws,2013-01-18 14:56:00,
2013-01-18 14:58:00,37.9,27.2,29.61,ENE,68,9.2,13.6,65,0.00,,,0.00,pywws,2013-01-18 14:58:00,
2013-01-18 15:04:00,37.9,27.2,29.61,ENE,68,9.2,13.6,65,0.00,,,0.00,pywws,2013-01-18 15:04:00,
2013-01-18 15:07:00,37.9,27.2,29.61,ENE,68,9.2,13.6,65,0.00,,,0.00,pywws,2013-01-18 15:07:00,
2013-01-18 15:09:00,37.9,27.2,29.62,ENE,68,9.2,13.6,65,0.00,,,0.00,pywws,2013-01-18 15:09:00,
2013-01-18 15:14:00,37.9,27.2,29.62,ENE,68,9.8,15.9,65,0.00,,,0.00,pywws,2013-01-18 15:14:00,
2013-01-18 15:16:00,37.9,27.2,29.62,ENE,68,9.8,15.9,65,0.00,,,0.00,pywws,2013-01-18 15:16:00,
2013-01-18 15:20:00,37.8,27.4,29.62,ENE,68,7.6,13.6,66,0.00,,,0.00,pywws,2013-01-18 15:20:00,
2013-01-18 15:25:00,37.8,27.4,29.62,ENE,68,7.6,13.6,66,0.00,,,0.00,pywws,2013-01-18 15:25:00,
2013-01-18 15:26:00,37.8,27.4,29.62,ENE,68,7.6,13.6,66,0.00,,,0.00,pywws,2013-01-18 15:26:00,
2013-01-18 15:30:00,37.6,27.3,29.62,ENE,68,6.0,11.4,66,0.00,,,0.00,pywws,2013-01-18 15:30:00,
2013-01-18 15:36:00,37.6,27.6,29.62,SE,135,7.6,14.5,67,0.00,,,0.00,pywws,2013-01-18 15:36:00,
2013-01-18 15:41:00,37.4,27.8,29.62,ENE,68,9.8,15.2,68,0.00,,,0.00,pywws,2013-01-18 15:41:00,
2013-01-18 15:46:00,37.2,28.0,29.62,ENE,68,8.3,13.0,69,0.00,,,0.00,pywws,2013-01-18 15:46:00,
2013-01-18 15:52:00,37.0,28.2,29.61,ENE,68,7.6,11.4,70,0.00,,,0.00,pywws,2013-01-18 15:52:00,
2013-01-18 15:57:00,37.0,28.2,29.61,ENE,68,7.6,11.4,70,0.00,,,0.00,pywws,2013-01-18 15:57:00,
2013-01-18 16:08:00,36.1,28.0,29.60,ENE,68,8.3,10.7,72,0.00,,,0.00,pywws,2013-01-18 16:08:00,
2013-01-18 16:13:00,36.1,28.0,29.60,ENE,68,6.0,9.2,72,0.00,,,0.00,pywws,2013-01-18 16:13:00,
2013-01-18 16:16:00,36.1,28.0,29.60,ENE,68,6.0,9.2,72,0.00,,,0.00,pywws,2013-01-18 16:16:00,
2013-01-18 16:18:00,36.1,28.3,29.60,NE,45,8.3,14.5,73,0.00,,,0.00,pywws,2013-01-18 16:18:00,
2013-01-18 16:24:00,36.1,28.3,29.59,ENE,68,7.6,13.6,73,0.00,,,0.00,pywws,2013-01-18 16:24:00,
2013-01-18 16:27:00,36.1,28.3,29.59,ENE,68,7.6,13.6,73,0.00,,,0.00,pywws,2013-01-18 16:27:00,
2013-01-18 16:29:00,36.3,28.5,29.59,ENE,68,7.6,13.6,73,0.00,,,0.00,pywws,2013-01-18 16:29:00,
2013-01-18 16:40:00,36.3,28.5,29.60,ENE,68,12.1,18.3,73,0.00,,,0.00,pywws,2013-01-18 16:40:00,
2013-01-18 16:45:00,36.3,28.8,29.59,ENE,68,5.4,10.7,74,0.00,,,0.00,pywws,2013-01-18 16:45:00,
2013-01-18 16:46:00,36.3,28.8,29.59,ENE,68,5.4,10.7,74,0.00,,,0.00,pywws,2013-01-18 16:46:00,
2013-01-18 16:50:00,36.3,28.8,29.59,NE,45,8.3,16.8,74,0.00,,,0.00,pywws,2013-01-18 16:50:00,
2013-01-18 17:22:00,36.0,28.5,29.59,ENE,68,9.8,16.8,74,0.00,,,0.00,pywws,2013-01-18 17:22:00,
2013-01-18 17:46:00,35.6,28.8,29.59,NE,45,4.5,6.9,76,0.00,,,0.00,pywws,2013-01-18 17:46:00,
2013-01-18 17:47:00,35.6,28.8,29.59,NE,45,4.5,6.9,76,0.00,,,0.00,pywws,2013-01-18 17:47:00,
2013-01-18 17:52:00,35.6,28.8,29.59,NE,45,7.6,12.1,76,0.00,,,0.00,pywws,2013-01-18 17:52:00,
2013-01-18 17:56:00,35.6,28.8,29.59,NE,45,7.6,12.1,76,0.00,,,0.00,pywws,2013-01-18 17:56:00,
2013-01-18 17:57:00,35.8,29.3,29.60,NE,45,10.7,17.5,77,0.00,,,0.00,pywws,2013-01-18 17:57:00,
2013-01-18 18:02:00,35.8,29.3,29.59,SE,135,9.2,14.5,77,0.00,,,0.00,pywws,2013-01-18 18:02:00,
2013-01-18 18:07:00,35.8,29.3,29.59,SE,135,9.2,14.5,77,0.00,,,0.00,pywws,2013-01-18 18:07:00,
2013-01-18 18:08:00,35.8,29.6,29.59,ENE,68,6.9,11.4,78,0.00,,,0.00,pywws,2013-01-18 18:08:00,
2013-01-18 18:13:00,36.0,29.8,29.59,SE,135,7.6,11.4,78,0.00,,,0.00,pywws,2013-01-18 18:13:00,
2013-01-18 18:17:00,36.0,29.8,29.59,SE,135,7.6,11.4,78,0.00,,,0.00,pywws,2013-01-18 18:17:00,
2013-01-18 18:18:00,36.0,29.8,29.58,SE,135,7.6,11.4,78,0.00,,,0.00,pywws,2013-01-18 18:18:00,
2013-01-18 18:24:00,36.0,30.1,29.59,ENE,68,13.6,18.3,79,0.00,,,0.00,pywws,2013-01-18 18:24:00,
2013-01-18 18:26:00,36.0,30.1,29.59,ENE,68,13.6,18.3,79,0.00,,,0.00,pywws,2013-01-18 18:26:00,
2013-01-18 18:29:00,36.1,30.3,29.59,SE,135,10.7,18.3,79,0.00,,,0.00,pywws,2013-01-18 18:29:00,
2013-01-18 18:34:00,36.1,30.3,29.58,SE,135,10.7,18.3,79,0.00,,,0.00,pywws,2013-01-18 18:34:00,
2013-01-18 18:36:00,36.1,30.3,29.58,SE,135,10.7,18.3,79,0.00,,,0.00,pywws,2013-01-18 18:36:00,
2013-01-18 18:40:00,36.3,30.4,29.59,ENE,68,13.0,24.4,79,0.00,,,0.00,pywws,2013-01-18 18:40:00,
2013-01-18 18:45:00,36.5,30.6,29.59,SE,135,11.4,19.0,79,0.00,,,0.00,pywws,2013-01-18 18:45:00,
2013-01-18 18:47:00,36.5,30.6,29.59,SE,135,11.4,19.0,79,0.00,,,0.00,pywws,2013-01-18 18:47:00,
2013-01-18 18:50:00,36.5,30.6,29.59,SE,135,11.4,19.0,79,0.00,,,0.00,pywws,2013-01-18 18:50:00,
2013-01-18 18:56:00,36.9,31.0,29.59,ENE,68,11.4,19.7,79,0.00,,,0.00,pywws,2013-01-18 18:56:00,
2013-01-18 19:01:00,36.9,31.0,29.59,ENE,68,11.4,19.7,79,0.00,,,0.00,pywws,2013-01-18 19:01:00,
2013-01-18 19:06:00,36.9,31.0,29.59,ENE,68,11.4,19.7,79,0.00,,,0.00,pywws,2013-01-18 19:06:00,
2013-01-18 19:07:00,36.9,31.0,29.59,ENE,68,11.4,19.7,79,0.00,,,0.00,pywws,2013-01-18 19:07:00,
2013-01-18 19:12:00,37.0,30.8,29.59,SE,135,15.9,22.1,78,0.00,,,0.00,pywws,2013-01-18 19:12:00,
2013-01-18 19:17:00,36.9,30.7,29.59,NE,45,13.0,17.5,78,0.00,,,0.00,pywws,2013-01-18 19:17:00,
2013-01-18 19:22:00,36.3,30.1,29.59,ENE,68,12.1,18.3,78,0.00,,,0.00,pywws,2013-01-18 19:22:00,
2013-01-18 19:27:00,36.3,30.1,29.59,ENE,68,12.1,18.3,78,0.00,,,0.00,pywws,2013-01-18 19:27:00,
2013-01-18 19:28:00,36.3,30.1,29.59,ENE,68,12.1,18.3,78,0.00,,,0.00,pywws,2013-01-18 19:28:00,
2013-01-18 19:33:00,35.8,29.9,29.59,SE,135,4.5,9.8,79,0.00,,,0.00,pywws,2013-01-18 19:33:00,
2013-01-18 19:36:00,35.8,29.9,29.59,SE,135,4.5,9.8,79,0.00,,,0.00,pywws,2013-01-18 19:36:00,
2013-01-18 19:38:00,35.6,29.7,29.59,SE,135,6.9,11.4,79,0.00,,,0.00,pywws,2013-01-18 19:38:00,
2013-01-18 19:44:00,35.6,29.7,29.59,ENE,68,13.6,22.8,79,0.00,,,0.00,pywws,2013-01-18 19:44:00,
2013-01-18 19:46:00,35.6,29.7,29.59,ENE,68,13.6,22.8,79,0.00,,,0.00,pywws,2013-01-18 19:46:00,
2013-01-18 19:49:00,35.8,30.2,29.59,SE,135,12.1,16.8,80,0.00,,,0.00,pywws,2013-01-18 19:49:00,
2013-01-18 19:54:00,35.8,30.2,29.59,SE,135,11.4,17.5,80,0.00,,,0.00,pywws,2013-01-18 19:54:00,
2013-01-18 19:56:00,35.8,30.2,29.59,SE,135,11.4,17.5,80,0.00,,,0.00,pywws,2013-01-18 19:56:00,
2013-01-18 20:00:00,36.0,30.4,29.59,NE,45,9.8,21.2,80,0.00,,,0.00,pywws,2013-01-18 20:00:00,
2013-01-18 20:05:00,36.0,30.4,29.59,NE,45,9.8,21.2,80,0.00,,,0.00,pywws,2013-01-18 20:05:00,
2013-01-18 20:07:00,36.0,30.4,29.59,NE,45,9.8,21.2,80,0.00,,,0.00,pywws,2013-01-18 20:07:00,
2013-01-18 20:10:00,36.1,30.9,29.59,SE,135,9.2,15.2,81,0.00,,,0.00,pywws,2013-01-18 20:10:00,
2013-01-18 20:16:00,36.5,31.2,29.59,ENE,68,7.6,13.0,81,0.00,,,0.00,pywws,2013-01-18 20:16:00,
2013-01-18 20:21:00,36.7,31.4,29.59,SE,135,14.5,19.0,81,0.00,,,0.00,pywws,2013-01-18 20:21:00,
2013-01-18 20:26:00,37.0,32.1,29.58,SE,135,9.8,15.2,82,0.00,,,0.00,pywws,2013-01-18 20:26:00,
2013-01-18 20:32:00,37.0,31.8,29.59,ENE,68,10.7,18.3,81,0.00,,,0.00,pywws,2013-01-18 20:32:00,
2013-01-18 20:36:00,37.0,31.8,29.59,ENE,68,10.7,18.3,81,0.00,,,0.00,pywws,2013-01-18 20:36:00,
2013-01-18 20:37:00,37.2,31.9,29.59,ENE,68,13.0,19.0,81,0.00,,,0.00,pywws,2013-01-18 20:37:00,
2013-01-18 20:42:00,37.4,32.1,29.59,SE,135,8.3,13.6,81,0.00,,,0.00,pywws,2013-01-18 20:42:00,
2013-01-18 20:46:00,37.4,32.1,29.59,SE,135,8.3,13.6,81,0.00,,,0.00,pywws,2013-01-18 20:46:00,
2013-01-18 20:48:00,37.4,32.1,29.59,SE,135,6.9,9.8,81,0.00,,,0.00,pywws,2013-01-18 20:48:00,
2013-01-18 20:53:00,37.4,31.8,29.59,SE,135,10.7,16.8,80,0.00,,,0.00,pywws,2013-01-18 20:53:00,
2013-01-18 20:56:00,37.4,31.8,29.59,SE,135,10.7,16.8,80,0.00,,,0.00,pywws,2013-01-18 20:56:00,
2013-01-18 20:59:00,37.4,31.8,29.59,SE,135,15.9,22.8,80,0.00,,,0.00,pywws,2013-01-18 20:59:00,
2013-01-18 21:05:00,37.6,31.7,29.59,ENE,68,13.0,23.5,79,0.00,,,0.00,pywws,2013-01-18 21:05:00,
2013-01-18 21:07:00,37.6,31.7,29.59,ENE,68,13.0,23.5,79,0.00,,,0.00,pywws,2013-01-18 21:07:00,
2013-01-18 21:09:00,37.6,31.7,29.59,ENE,68,12.1,20.6,79,0.00,,,0.00,pywws,2013-01-18 21:09:00,
2013-01-18 21:14:00,37.6,31.4,29.59,ENE,68,9.8,15.9,78,0.00,,,0.00,pywws,2013-01-18 21:14:00,
2013-01-18 21:16:00,37.6,31.4,29.59,ENE,68,9.8,15.9,78,0.00,,,0.00,pywws,2013-01-18 21:16:00,
2013-01-18 21:20:00,37.6,31.0,29.60,ENE,68,15.9,21.2,77,0.00,,,0.00,pywws,2013-01-18 21:20:00,
2013-01-18 21:25:00,37.6,31.0,29.59,ENE,68,11.4,17.5,77,0.00,,,0.00,pywws,2013-01-18 21:25:00,
2013-01-18 21:26:00,37.6,31.0,29.59,ENE,68,11.4,17.5,77,0.00,,,0.00,pywws,2013-01-18 21:26:00,
2013-01-18 21:30:00,37.4,30.9,29.59,NE,45,6.0,13.0,77,0.00,,,0.00,pywws,2013-01-18 21:30:00,
2013-01-18 21:36:00,37.4,30.9,29.59,ENE,68,19.0,28.2,77,0.00,,,0.00,pywws,2013-01-18 21:36:00,
2013-01-18 21:38:00,37.4,30.9,29.59,ENE,68,19.0,28.2,77,0.00,,,0.00,pywws,2013-01-18 21:38:00,
2013-01-18 21:41:00,37.6,31.0,29.59,ENE,68,11.4,15.2,77,0.00,,,0.00,pywws,2013-01-18 21:41:00,
2013-01-18 21:46:00,37.6,30.7,29.60,ENE,68,14.5,23.5,76,0.00,,,0.00,pywws,2013-01-18 21:46:00,
2013-01-18 21:52:00,37.6,30.7,29.60,SE,135,15.2,21.2,76,0.00,,,0.00,pywws,2013-01-18 21:52:00,
2013-01-18 21:56:00,37.6,30.7,29.60,SE,135,15.2,21.2,76,0.00,,,0.00,pywws,2013-01-18 21:56:00,
2013-01-18 21:57:00,37.6,30.7,29.59,NE,45,14.5,24.4,76,0.00,,,0.00,pywws,2013-01-18 21:57:00,
2013-01-18 22:02:00,37.6,30.7,29.58,SE,135,10.7,16.8,76,0.00,,,0.00,pywws,2013-01-18 22:02:00,
2013-01-18 22:06:00,37.6,30.7,29.58,SE,135,10.7,16.8,76,0.00,,,0.00,pywws,2013-01-18 22:06:00,
2013-01-18 22:07:00,37.6,30.7,29.59,SE,135,10.7,16.8,76,0.00,,,0.00,pywws,2013-01-18 22:07:00,
2013-01-18 22:12:00,37.8,30.9,29.59,ENE,68,15.2,25.0,76,0.00,,,0.00,pywws,2013-01-18 22:12:00,
2013-01-18 22:16:00,37.8,30.9,29.59,ENE,68,15.2,25.0,76,0.00,,,0.00,pywws,2013-01-18 22:16:00,
2013-01-18 22:17:00,37.4,30.5,29.59,SE,135,13.0,20.6,76,0.00,,,0.00,pywws,2013-01-18 22:17:00,
2013-01-18 22:22:00,36.7,30.2,29.59,NE,45,9.2,15.9,77,0.00,,,0.00,pywws,2013-01-18 22:22:00,
2013-01-18 22:26:00,36.7,30.2,29.59,NE,45,9.2,15.9,77,0.00,,,0.00,pywws,2013-01-18 22:26:00,
2013-01-18 22:28:00,36.3,29.8,29.59,ENE,68,10.7,22.1,77,0.00,,,0.00,pywws,2013-01-18 22:28:00,
2013-01-18 22:33:00,36.3,29.8,29.59,ENE,68,10.7,22.1,77,0.00,,,0.00,pywws,2013-01-18 22:33:00,
2013-01-18 22:37:00,36.3,29.8,29.59,ENE,68,10.7,22.1,77,0.00,,,0.00,pywws,2013-01-18 22:37:00,
2013-01-18 22:44:00,36.5,30.6,29.59,ENE,68,13.6,21.2,79,0.00,,,0.00,pywws,2013-01-18 22:44:00,
2013-01-18 22:47:00,36.5,30.6,29.59,ENE,68,13.6,21.2,79,0.00,,,0.00,pywws,2013-01-18 22:47:00,